sensor_id;sensor_type;location;lat;lon;timestamp;P1;durP1;ratioP1;P2;durP2;ratioP2
39454;SDS011;25155;41.890;23.446;2023-10-09T00:02:12;12.30;;;4.25;;
39454;SDS011;25155;41.890;23.446;2023-10-09T00:04:40;12.68;;;3.70;;
39454;SDS011;25155;41.890;23.446;2023-10-09T00:07:10;10.00;;;3.25;;
39454;SDS011;25155;41.890;23.446;2023-10-09T00:09:42;8.93;;;3.35;;
39454;SDS011;25155;41.890;23.446;2023-10-09T00:12:13;13.27;;;3.50;;
39454;SDS011;25155;41.890;23.446;2023-10-09T00:14:41;11.00;;;3.60;;
39454;SDS011;25155;41.890;23.446;2023-10-09T00:17:16;10.43;;;3.25;;
39454;SDS011;25155;41.890;23.446;2023-10-09T00:19:47;12.35;;;3.72;;
39454;SDS011;25155;41.890;23.446;2023-10-09T00:22:17;9.93;;;3.20;;
39454;SDS011;25155;41.890;23.446;2023-10-09T00:24:54;11.35;;;3.55;;
39454;SDS011;25155;41.890;23.446;2023-10-09T00:27:46;9.35;;;3.25;;
39454;SDS011;25155;41.890;23.446;2023-10-09T00:30:14;13.30;;;3.88;;
39454;SDS011;25155;41.890;23.446;2023-10-09T00:32:45;11.63;;;3.80;;
39454;SDS011;25155;41.890;23.446;2023-10-09T00:35:20;10.50;;;3.67;;
39454;SDS011;25155;41.890;23.446;2023-10-09T00:38:19;10.65;;;3.67;;
39454;SDS011;25155;41.890;23.446;2023-10-09T00:40:58;9.85;;;3.35;;
39454;SDS011;25155;41.890;23.446;2023-10-09T00:43:35;9.13;;;3.28;;
39454;SDS011;25155;41.890;23.446;2023-10-09T00:46:04;8.75;;;3.40;;
39454;SDS011;25155;41.890;23.446;2023-10-09T00:48:39;10.60;;;3.55;;
39454;SDS011;25155;41.890;23.446;2023-10-09T00:51:07;9.85;;;3.55;;
39454;SDS011;25155;41.890;23.446;2023-10-09T00:53:44;10.70;;;3.58;;
39454;SDS011;25155;41.890;23.446;2023-10-09T00:56:16;14.55;;;3.00;;
39454;SDS011;25155;41.890;23.446;2023-10-09T00:58:55;15.60;;;3.70;;
39454;SDS011;25155;41.890;23.446;2023-10-09T01:01:33;6.90;;;2.90;;
39454;SDS011;25155;41.890;23.446;2023-10-09T01:04:04;12.75;;;3.40;;
39454;SDS011;25155;41.890;23.446;2023-10-09T01:06:35;11.32;;;3.40;;
39454;SDS011;25155;41.890;23.446;2023-10-09T01:09:09;8.63;;;2.95;;
39454;SDS011;25155;41.890;23.446;2023-10-09T01:11:39;7.57;;;3.22;;
39454;SDS011;25155;41.890;23.446;2023-10-09T01:14:28;9.10;;;2.60;;
39454;SDS011;25155;41.890;23.446;2023-10-09T01:16:56;8.20;;;2.97;;
39454;SDS011;25155;41.890;23.446;2023-10-09T01:19:27;6.65;;;2.58;;
39454;SDS011;25155;41.890;23.446;2023-10-09T01:21:56;9.07;;;3.50;;
39454;SDS011;25155;41.890;23.446;2023-10-09T01:24:31;5.07;;;2.58;;
39454;SDS011;25155;41.890;23.446;2023-10-09T01:27:04;7.63;;;2.78;;
39454;SDS011;25155;41.890;23.446;2023-10-09T01:29:38;6.18;;;2.60;;
39454;SDS011;25155;41.890;23.446;2023-10-09T01:32:07;6.53;;;2.80;;
39454;SDS011;25155;41.890;23.446;2023-10-09T01:34:42;7.80;;;2.75;;
39454;SDS011;25155;41.890;23.446;2023-10-09T01:37:10;8.10;;;2.83;;
39454;SDS011;25155;41.890;23.446;2023-10-09T01:39:45;7.80;;;2.95;;
39454;SDS011;25155;41.890;23.446;2023-10-09T01:42:13;8.55;;;2.80;;
39454;SDS011;25155;41.890;23.446;2023-10-09T01:44:49;7.32;;;2.60;;
39454;SDS011;25155;41.890;23.446;2023-10-09T01:47:17;8.27;;;2.95;;
39454;SDS011;25155;41.890;23.446;2023-10-09T01:49:47;10.68;;;2.88;;
39454;SDS011;25155;41.890;23.446;2023-10-09T01:52:18;10.95;;;2.92;;
39454;SDS011;25155;41.890;23.446;2023-10-09T01:54:50;8.55;;;2.80;;
39454;SDS011;25155;41.890;23.446;2023-10-09T01:57:19;7.82;;;2.70;;
39454;SDS011;25155;41.890;23.446;2023-10-09T01:59:49;7.10;;;2.90;;
39454;SDS011;25155;41.890;23.446;2023-10-09T02:02:19;6.55;;;2.60;;
39454;SDS011;25155;41.890;23.446;2023-10-09T02:05:00;6.72;;;2.75;;
39454;SDS011;25155;41.890;23.446;2023-10-09T02:07:36;7.22;;;2.92;;
39454;SDS011;25155;41.890;23.446;2023-10-09T02:10:18;4.82;;;2.30;;
39454;SDS011;25155;41.890;23.446;2023-10-09T02:12:57;9.18;;;2.88;;
39454;SDS011;25155;41.890;23.446;2023-10-09T02:15:25;11.10;;;2.70;;
39454;SDS011;25155;41.890;23.446;2023-10-09T02:18:17;8.48;;;2.78;;
39454;SDS011;25155;41.890;23.446;2023-10-09T02:21:05;6.13;;;2.50;;
39454;SDS011;25155;41.890;23.446;2023-10-09T02:23:39;8.05;;;2.42;;
39454;SDS011;25155;41.890;23.446;2023-10-09T02:26:13;6.38;;;2.50;;
39454;SDS011;25155;41.890;23.446;2023-10-09T02:28:45;7.10;;;2.50;;
39454;SDS011;25155;41.890;23.446;2023-10-09T02:31:24;7.00;;;2.65;;
39454;SDS011;25155;41.890;23.446;2023-10-09T02:33:54;6.18;;;2.20;;
39454;SDS011;25155;41.890;23.446;2023-10-09T02:36:22;6.72;;;2.50;;
39454;SDS011;25155;41.890;23.446;2023-10-09T02:38:49;6.55;;;2.63;;
39454;SDS011;25155;41.890;23.446;2023-10-09T02:41:22;5.20;;;2.45;;
39454;SDS011;25155;41.890;23.446;2023-10-09T02:43:54;3.80;;;2.00;;
39454;SDS011;25155;41.890;23.446;2023-10-09T02:46:22;6.05;;;2.28;;
39454;SDS011;25155;41.890;23.446;2023-10-09T02:48:56;6.85;;;2.40;;
39454;SDS011;25155;41.890;23.446;2023-10-09T02:51:24;6.43;;;2.50;;
39454;SDS011;25155;41.890;23.446;2023-10-09T02:54:02;6.20;;;2.70;;
39454;SDS011;25155;41.890;23.446;2023-10-09T02:56:54;5.72;;;2.33;;
39454;SDS011;25155;41.890;23.446;2023-10-09T02:59:30;7.40;;;2.60;;
39454;SDS011;25155;41.890;23.446;2023-10-09T03:01:58;9.18;;;2.70;;
39454;SDS011;25155;41.890;23.446;2023-10-09T03:04:32;5.90;;;2.28;;
39454;SDS011;25155;41.890;23.446;2023-10-09T03:06:59;5.32;;;2.25;;
39454;SDS011;25155;41.890;23.446;2023-10-09T03:09:29;4.78;;;2.40;;
39454;SDS011;25155;41.890;23.446;2023-10-09T03:12:00;8.13;;;2.25;;
39454;SDS011;25155;41.890;23.446;2023-10-09T03:16:56;7.30;;;2.47;;
39454;SDS011;25155;41.890;23.446;2023-10-09T03:19:25;4.93;;;2.10;;
39454;SDS011;25155;41.890;23.446;2023-10-09T03:21:53;7.10;;;2.20;;
39454;SDS011;25155;41.890;23.446;2023-10-09T03:24:22;7.00;;;2.28;;
39454;SDS011;25155;41.890;23.446;2023-10-09T03:26:50;9.15;;;2.30;;
39454;SDS011;25155;41.890;23.446;2023-10-09T03:29:19;7.30;;;2.35;;
39454;SDS011;25155;41.890;23.446;2023-10-09T03:31:46;5.78;;;2.30;;
39454;SDS011;25155;41.890;23.446;2023-10-09T03:34:16;8.45;;;2.50;;
39454;SDS011;25155;41.890;23.446;2023-10-09T03:36:43;9.15;;;2.20;;
39454;SDS011;25155;41.890;23.446;2023-10-09T03:39:11;4.85;;;2.10;;
39454;SDS011;25155;41.890;23.446;2023-10-09T03:41:50;4.72;;;2.13;;
39454;SDS011;25155;41.890;23.446;2023-10-09T03:44:20;4.22;;;2.10;;
39454;SDS011;25155;41.890;23.446;2023-10-09T03:46:48;8.07;;;2.60;;
39454;SDS011;25155;41.890;23.446;2023-10-09T03:49:17;4.60;;;1.90;;
39454;SDS011;25155;41.890;23.446;2023-10-09T03:51:49;6.20;;;2.38;;
39454;SDS011;25155;41.890;23.446;2023-10-09T03:54:16;5.65;;;2.08;;
39454;SDS011;25155;41.890;23.446;2023-10-09T03:56:46;3.72;;;1.90;;
39454;SDS011;25155;41.890;23.446;2023-10-09T03:59:15;4.80;;;2.40;;
39454;SDS011;25155;41.890;23.446;2023-10-09T04:01:46;9.77;;;2.83;;
39454;SDS011;25155;41.890;23.446;2023-10-09T04:04:14;4.55;;;2.13;;
39454;SDS011;25155;41.890;23.446;2023-10-09T04:06:41;5.78;;;2.30;;
39454;SDS011;25155;41.890;23.446;2023-10-09T04:09:09;7.65;;;2.33;;
39454;SDS011;25155;41.890;23.446;2023-10-09T04:11:52;4.47;;;2.20;;
39454;SDS011;25155;41.890;23.446;2023-10-09T04:14:43;7.32;;;2.40;;
39454;SDS011;25155;41.890;23.446;2023-10-09T04:17:21;6.78;;;2.30;;
39454;SDS011;25155;41.890;23.446;2023-10-09T04:20:00;3.60;;;2.10;;
39454;SDS011;25155;41.890;23.446;2023-10-09T04:22:45;8.27;;;2.60;;
39454;SDS011;25155;41.890;23.446;2023-10-09T04:25:17;4.82;;;2.33;;
39454;SDS011;25155;41.890;23.446;2023-10-09T04:27:51;6.68;;;2.15;;
39454;SDS011;25155;41.890;23.446;2023-10-09T04:30:26;4.60;;;2.33;;
39454;SDS011;25155;41.890;23.446;2023-10-09T04:32:55;10.73;;;2.55;;
39454;SDS011;25155;41.890;23.446;2023-10-09T04:35:29;5.10;;;2.30;;
39454;SDS011;25155;41.890;23.446;2023-10-09T04:37:59;7.40;;;2.53;;
39454;SDS011;25155;41.890;23.446;2023-10-09T04:40:30;5.93;;;2.42;;
39454;SDS011;25155;41.890;23.446;2023-10-09T04:43:24;6.57;;;2.50;;
39454;SDS011;25155;41.890;23.446;2023-10-09T04:45:51;6.45;;;2.58;;
39454;SDS011;25155;41.890;23.446;2023-10-09T04:48:39;6.10;;;2.53;;
39454;SDS011;25155;41.890;23.446;2023-10-09T04:51:11;6.22;;;2.33;;
39454;SDS011;25155;41.890;23.446;2023-10-09T04:53:46;4.80;;;2.40;;
39454;SDS011;25155;41.890;23.446;2023-10-09T04:56:25;6.32;;;2.47;;
39454;SDS011;25155;41.890;23.446;2023-10-09T04:58:57;3.95;;;2.40;;
39454;SDS011;25155;41.890;23.446;2023-10-09T05:01:29;7.88;;;2.65;;
39454;SDS011;25155;41.890;23.446;2023-10-09T05:04:10;5.03;;;2.50;;
39454;SDS011;25155;41.890;23.446;2023-10-09T05:06:54;5.28;;;2.40;;
39454;SDS011;25155;41.890;23.446;2023-10-09T05:09:21;4.85;;;2.40;;
39454;SDS011;25155;41.890;23.446;2023-10-09T05:11:49;4.28;;;2.15;;
39454;SDS011;25155;41.890;23.446;2023-10-09T05:14:19;4.18;;;2.30;;
39454;SDS011;25155;41.890;23.446;2023-10-09T05:17:04;4.68;;;2.22;;
39454;SDS011;25155;41.890;23.446;2023-10-09T05:19:43;5.40;;;2.30;;
39454;SDS011;25155;41.890;23.446;2023-10-09T05:22:42;3.83;;;2.03;;
39454;SDS011;25155;41.890;23.446;2023-10-09T05:25:22;4.97;;;2.20;;
39454;SDS011;25155;41.890;23.446;2023-10-09T05:28:04;3.88;;;2.38;;
39454;SDS011;25155;41.890;23.446;2023-10-09T05:30:45;4.05;;;2.08;;
39454;SDS011;25155;41.890;23.446;2023-10-09T05:33:20;3.30;;;1.92;;
39454;SDS011;25155;41.890;23.446;2023-10-09T05:36:00;3.45;;;1.85;;
39454;SDS011;25155;41.890;23.446;2023-10-09T05:38:47;4.40;;;1.98;;
39454;SDS011;25155;41.890;23.446;2023-10-09T05:41:24;4.18;;;1.95;;
39454;SDS011;25155;41.890;23.446;2023-10-09T05:44:10;3.30;;;2.15;;
39454;SDS011;25155;41.890;23.446;2023-10-09T05:46:54;3.85;;;2.10;;
39454;SDS011;25155;41.890;23.446;2023-10-09T05:49:47;4.72;;;2.13;;
39454;SDS011;25155;41.890;23.446;2023-10-09T05:52:30;4.00;;;2.20;;
39454;SDS011;25155;41.890;23.446;2023-10-09T05:55:29;4.00;;;2.10;;
39454;SDS011;25155;41.890;23.446;2023-10-09T05:58:29;3.75;;;1.90;;
39454;SDS011;25155;41.890;23.446;2023-10-09T06:01:13;3.00;;;2.00;;
39454;SDS011;25155;41.890;23.446;2023-10-09T06:03:58;3.60;;;2.03;;
39454;SDS011;25155;41.890;23.446;2023-10-09T06:06:40;3.97;;;1.98;;
39454;SDS011;25155;41.890;23.446;2023-10-09T06:09:12;5.32;;;2.25;;
39454;SDS011;25155;41.890;23.446;2023-10-09T06:12:03;5.05;;;2.10;;
39454;SDS011;25155;41.890;23.446;2023-10-09T06:14:48;4.28;;;2.05;;
39454;SDS011;25155;41.890;23.446;2023-10-09T06:29:23;5.63;;;2.38;;
39454;SDS011;25155;41.890;23.446;2023-10-09T06:32:01;4.85;;;2.00;;
39454;SDS011;25155;41.890;23.446;2023-10-09T06:34:59;5.22;;;2.20;;
39454;SDS011;25155;41.890;23.446;2023-10-09T06:37:57;4.03;;;2.03;;
39454;SDS011;25155;41.890;23.446;2023-10-09T06:40:46;4.00;;;2.20;;
39454;SDS011;25155;41.890;23.446;2023-10-09T06:43:32;4.45;;;2.25;;
39454;SDS011;25155;41.890;23.446;2023-10-09T06:46:02;4.75;;;2.30;;
39454;SDS011;25155;41.890;23.446;2023-10-09T06:48:47;3.92;;;2.20;;
39454;SDS011;25155;41.890;23.446;2023-10-09T06:51:22;6.47;;;2.30;;
39454;SDS011;25155;41.890;23.446;2023-10-09T06:54:17;5.35;;;2.60;;
39454;SDS011;25155;41.890;23.446;2023-10-09T06:56:44;5.20;;;2.55;;
39454;SDS011;25155;41.890;23.446;2023-10-09T06:59:37;4.53;;;2.28;;
39454;SDS011;25155;41.890;23.446;2023-10-09T07:02:24;4.40;;;2.63;;
39454;SDS011;25155;41.890;23.446;2023-10-09T07:04:56;5.70;;;2.55;;
39454;SDS011;25155;41.890;23.446;2023-10-09T07:07:36;4.32;;;2.10;;
39454;SDS011;25155;41.890;23.446;2023-10-09T07:10:17;6.10;;;2.35;;
39454;SDS011;25155;41.890;23.446;2023-10-09T07:12:54;6.70;;;2.30;;
39454;SDS011;25155;41.890;23.446;2023-10-09T07:15:22;4.60;;;2.17;;
39454;SDS011;25155;41.890;23.446;2023-10-09T07:18:07;6.07;;;2.25;;
39454;SDS011;25155;41.890;23.446;2023-10-09T07:20:49;4.90;;;2.30;;
39454;SDS011;25155;41.890;23.446;2023-10-09T07:36:05;2.53;;;1.73;;
39454;SDS011;25155;41.890;23.446;2023-10-09T07:38:34;4.55;;;2.33;;
39454;SDS011;25155;41.890;23.446;2023-10-09T07:41:01;3.58;;;2.10;;
39454;SDS011;25155;41.890;23.446;2023-10-09T07:46:12;3.83;;;2.00;;
39454;SDS011;25155;41.890;23.446;2023-10-09T07:48:58;2.92;;;1.60;;
39454;SDS011;25155;41.890;23.446;2023-10-09T07:51:36;4.95;;;1.77;;
39454;SDS011;25155;41.890;23.446;2023-10-09T07:54:04;2.85;;;1.70;;
39454;SDS011;25155;41.890;23.446;2023-10-09T07:56:33;3.05;;;1.83;;
39454;SDS011;25155;41.890;23.446;2023-10-09T07:59:06;3.25;;;1.50;;
39454;SDS011;25155;41.890;23.446;2023-10-09T08:01:36;4.97;;;1.80;;
39454;SDS011;25155;41.890;23.446;2023-10-09T08:04:04;3.20;;;1.70;;
39454;SDS011;25155;41.890;23.446;2023-10-09T08:06:38;4.50;;;1.85;;
39454;SDS011;25155;41.890;23.446;2023-10-09T08:09:08;3.30;;;1.75;;
39454;SDS011;25155;41.890;23.446;2023-10-09T08:11:53;4.07;;;2.05;;
39454;SDS011;25155;41.890;23.446;2023-10-09T08:14:39;4.72;;;2.03;;
39454;SDS011;25155;41.890;23.446;2023-10-09T08:17:11;3.50;;;1.80;;
39454;SDS011;25155;41.890;23.446;2023-10-09T08:19:41;4.32;;;1.73;;
39454;SDS011;25155;41.890;23.446;2023-10-09T08:22:23;3.17;;;1.80;;
39454;SDS011;25155;41.890;23.446;2023-10-09T08:25:08;3.90;;;1.90;;
39454;SDS011;25155;41.890;23.446;2023-10-09T08:27:52;5.32;;;2.10;;
39454;SDS011;25155;41.890;23.446;2023-10-09T08:30:24;2.90;;;1.80;;
39454;SDS011;25155;41.890;23.446;2023-10-09T08:33:06;2.65;;;1.77;;
39454;SDS011;25155;41.890;23.446;2023-10-09T08:35:51;3.70;;;1.83;;
39454;SDS011;25155;41.890;23.446;2023-10-09T08:38:23;4.25;;;1.80;;
39454;SDS011;25155;41.890;23.446;2023-10-09T08:40:50;4.47;;;1.98;;
39454;SDS011;25155;41.890;23.446;2023-10-09T08:43:23;3.65;;;1.90;;
39454;SDS011;25155;41.890;23.446;2023-10-09T08:45:52;3.28;;;1.80;;
39454;SDS011;25155;41.890;23.446;2023-10-09T08:48:26;3.72;;;1.98;;
39454;SDS011;25155;41.890;23.446;2023-10-09T08:50:55;3.65;;;1.80;;
39454;SDS011;25155;41.890;23.446;2023-10-09T08:53:25;25.00;;;2.83;;
39454;SDS011;25155;41.890;23.446;2023-10-09T08:55:53;6.22;;;1.90;;
39454;SDS011;25155;41.890;23.446;2023-10-09T08:58:20;4.10;;;2.00;;
39454;SDS011;25155;41.890;23.446;2023-10-09T09:00:50;6.28;;;2.30;;
39454;SDS011;25155;41.890;23.446;2023-10-09T09:03:18;3.50;;;1.92;;
39454;SDS011;25155;41.890;23.446;2023-10-09T09:05:47;4.85;;;2.22;;
39454;SDS011;25155;41.890;23.446;2023-10-09T09:08:21;5.68;;;2.38;;
39454;SDS011;25155;41.890;23.446;2023-10-09T09:10:58;5.18;;;2.03;;
39454;SDS011;25155;41.890;23.446;2023-10-09T09:13:37;4.70;;;2.05;;
39454;SDS011;25155;41.890;23.446;2023-10-09T09:16:14;4.47;;;1.92;;
39454;SDS011;25155;41.890;23.446;2023-10-09T09:18:53;4.32;;;1.90;;
39454;SDS011;25155;41.890;23.446;2023-10-09T09:21:26;5.95;;;2.00;;
39454;SDS011;25155;41.890;23.446;2023-10-09T09:23:59;5.75;;;2.00;;
39454;SDS011;25155;41.890;23.446;2023-10-09T09:26:37;3.40;;;1.95;;
39454;SDS011;25155;41.890;23.446;2023-10-09T09:29:10;3.97;;;1.95;;
39454;SDS011;25155;41.890;23.446;2023-10-09T09:31:38;5.65;;;1.98;;
39454;SDS011;25155;41.890;23.446;2023-10-09T09:34:17;3.15;;;1.67;;
39454;SDS011;25155;41.890;23.446;2023-10-09T09:36:50;4.55;;;2.25;;
39454;SDS011;25155;41.890;23.446;2023-10-09T09:39:21;4.00;;;1.80;;
39454;SDS011;25155;41.890;23.446;2023-10-09T09:41:58;3.45;;;1.70;;
39454;SDS011;25155;41.890;23.446;2023-10-09T09:44:32;3.75;;;1.95;;
39454;SDS011;25155;41.890;23.446;2023-10-09T09:47:08;3.67;;;1.88;;
39454;SDS011;25155;41.890;23.446;2023-10-09T09:49:40;4.80;;;2.20;;
39454;SDS011;25155;41.890;23.446;2023-10-09T09:52:08;3.40;;;2.05;;
39454;SDS011;25155;41.890;23.446;2023-10-09T09:54:37;9.52;;;2.22;;
39454;SDS011;25155;41.890;23.446;2023-10-09T09:57:06;4.30;;;1.80;;
39454;SDS011;25155;41.890;23.446;2023-10-09T09:59:39;6.28;;;2.10;;
39454;SDS011;25155;41.890;23.446;2023-10-09T10:02:18;4.25;;;1.90;;
39454;SDS011;25155;41.890;23.446;2023-10-09T10:04:55;5.25;;;2.10;;
39454;SDS011;25155;41.890;23.446;2023-10-09T10:09:55;6.22;;;2.15;;
39454;SDS011;25155;41.890;23.446;2023-10-09T10:18:31;5.07;;;2.00;;
39454;SDS011;25155;41.890;23.446;2023-10-09T10:21:10;8.77;;;2.20;;
39454;SDS011;25155;41.890;23.446;2023-10-09T10:23:41;3.30;;;2.10;;
39454;SDS011;25155;41.890;23.446;2023-10-09T10:31:52;6.82;;;2.40;;
39454;SDS011;25155;41.890;23.446;2023-10-09T10:34:25;4.25;;;1.80;;
39454;SDS011;25155;41.890;23.446;2023-10-09T10:36:53;4.03;;;2.00;;
39454;SDS011;25155;41.890;23.446;2023-10-09T10:39:25;2.75;;;1.75;;
39454;SDS011;25155;41.890;23.446;2023-10-09T10:42:11;2.90;;;1.80;;
39454;SDS011;25155;41.890;23.446;2023-10-09T10:45:00;5.38;;;2.40;;
39454;SDS011;25155;41.890;23.446;2023-10-09T10:47:48;5.32;;;1.90;;
39454;SDS011;25155;41.890;23.446;2023-10-09T10:50:21;3.83;;;2.03;;
39454;SDS011;25155;41.890;23.446;2023-10-09T10:53:08;2.55;;;1.70;;
39454;SDS011;25155;41.890;23.446;2023-10-09T10:55:50;7.68;;;2.22;;
39454;SDS011;25155;41.890;23.446;2023-10-09T10:58:21;4.10;;;2.10;;
39454;SDS011;25155;41.890;23.446;2023-10-09T11:01:02;4.30;;;2.03;;
39454;SDS011;25155;41.890;23.446;2023-10-09T11:03:37;4.03;;;2.00;;
39454;SDS011;25155;41.890;23.446;2023-10-09T11:06:27;11.15;;;1.80;;
39454;SDS011;25155;41.890;23.446;2023-10-09T11:09:03;5.65;;;1.83;;
39454;SDS011;25155;41.890;23.446;2023-10-09T11:11:48;3.63;;;1.70;;
39454;SDS011;25155;41.890;23.446;2023-10-09T11:14:15;3.58;;;2.00;;
39454;SDS011;25155;41.890;23.446;2023-10-09T11:16:50;4.75;;;2.00;;
39454;SDS011;25155;41.890;23.446;2023-10-09T11:19:23;4.32;;;1.90;;
39454;SDS011;25155;41.890;23.446;2023-10-09T11:21:57;3.13;;;1.88;;
39454;SDS011;25155;41.890;23.446;2023-10-09T11:24:46;5.85;;;2.10;;
39454;SDS011;25155;41.890;23.446;2023-10-09T11:29:58;10.77;;;2.27;;
39454;SDS011;25155;41.890;23.446;2023-10-09T11:32:35;4.97;;;2.28;;
39454;SDS011;25155;41.890;23.446;2023-10-09T11:35:11;3.25;;;1.83;;
39454;SDS011;25155;41.890;23.446;2023-10-09T14:44:18;7.22;;;1.88;;
39454;SDS011;25155;41.890;23.446;2023-10-09T14:46:45;3.15;;;1.80;;
39454;SDS011;25155;41.890;23.446;2023-10-09T14:49:14;5.03;;;1.98;;
39454;SDS011;25155;41.890;23.446;2023-10-09T14:51:47;4.80;;;1.80;;
39454;SDS011;25155;41.890;23.446;2023-10-09T14:54:14;4.07;;;1.83;;
39454;SDS011;25155;41.890;23.446;2023-10-09T14:56:43;4.18;;;1.90;;
39454;SDS011;25155;41.890;23.446;2023-10-09T14:59:12;5.63;;;2.00;;
39454;SDS011;25155;41.890;23.446;2023-10-09T15:01:40;3.80;;;1.90;;
39454;SDS011;25155;41.890;23.446;2023-10-09T15:04:07;3.72;;;1.85;;
39454;SDS011;25155;41.890;23.446;2023-10-09T15:06:40;4.32;;;2.08;;
39454;SDS011;25155;41.890;23.446;2023-10-09T15:09:07;4.13;;;2.00;;
39454;SDS011;25155;41.890;23.446;2023-10-09T15:11:47;3.38;;;1.92;;
39454;SDS011;25155;41.890;23.446;2023-10-09T15:14:14;4.15;;;2.13;;
39454;SDS011;25155;41.890;23.446;2023-10-09T15:16:45;4.38;;;2.10;;
39454;SDS011;25155;41.890;23.446;2023-10-09T15:19:12;4.82;;;1.90;;
39454;SDS011;25155;41.890;23.446;2023-10-09T15:21:41;2.95;;;1.73;;
39454;SDS011;25155;41.890;23.446;2023-10-09T15:24:10;3.55;;;1.85;;
39454;SDS011;25155;41.890;23.446;2023-10-09T15:26:40;4.07;;;2.13;;
39454;SDS011;25155;41.890;23.446;2023-10-09T15:29:08;4.25;;;1.90;;
39454;SDS011;25155;41.890;23.446;2023-10-09T15:31:35;4.63;;;1.80;;
39454;SDS011;25155;41.890;23.446;2023-10-09T15:34:05;4.03;;;1.90;;
39454;SDS011;25155;41.890;23.446;2023-10-09T15:36:34;4.43;;;2.13;;
39454;SDS011;25155;41.890;23.446;2023-10-09T15:39:02;5.22;;;2.10;;
39454;SDS011;25155;41.890;23.446;2023-10-09T15:41:33;4.03;;;2.13;;
39454;SDS011;25155;41.890;23.446;2023-10-09T15:44:00;4.03;;;2.20;;
39454;SDS011;25155;41.890;23.446;2023-10-09T15:46:27;4.20;;;2.20;;
39454;SDS011;25155;41.890;23.446;2023-10-09T15:48:58;4.68;;;2.08;;
39454;SDS011;25155;41.890;23.446;2023-10-09T15:51:27;5.22;;;2.13;;
39454;SDS011;25155;41.890;23.446;2023-10-09T15:53:55;4.57;;;2.22;;
39454;SDS011;25155;41.890;23.446;2023-10-09T15:56:23;4.53;;;2.30;;
39454;SDS011;25155;41.890;23.446;2023-10-09T15:58:52;5.97;;;2.10;;
39454;SDS011;25155;41.890;23.446;2023-10-09T16:01:20;5.25;;;2.55;;
39454;SDS011;25155;41.890;23.446;2023-10-09T16:03:47;6.38;;;2.30;;
39454;SDS011;25155;41.890;23.446;2023-10-09T16:06:15;5.05;;;2.30;;
39454;SDS011;25155;41.890;23.446;2023-10-09T16:08:46;4.60;;;2.20;;
39454;SDS011;25155;41.890;23.446;2023-10-09T16:11:18;5.55;;;2.08;;
39454;SDS011;25155;41.890;23.446;2023-10-09T16:13:48;3.75;;;2.10;;
39454;SDS011;25155;41.890;23.446;2023-10-09T16:16:23;4.88;;;2.22;;
39454;SDS011;25155;41.890;23.446;2023-10-09T16:18:51;3.42;;;2.00;;
39454;SDS011;25155;41.890;23.446;2023-10-09T16:21:18;6.63;;;2.30;;
39454;SDS011;25155;41.890;23.446;2023-10-09T16:23:46;4.70;;;2.20;;
39454;SDS011;25155;41.890;23.446;2023-10-09T16:26:15;6.15;;;2.22;;
39454;SDS011;25155;41.890;23.446;2023-10-09T16:28:43;4.25;;;2.20;;
39454;SDS011;25155;41.890;23.446;2023-10-09T16:31:11;4.65;;;1.95;;
39454;SDS011;25155;41.890;23.446;2023-10-09T16:33:44;4.22;;;1.80;;
39454;SDS011;25155;41.890;23.446;2023-10-09T16:36:12;3.72;;;2.10;;
39454;SDS011;25155;41.890;23.446;2023-10-09T16:38:41;5.28;;;2.35;;
39454;SDS011;25155;41.890;23.446;2023-10-09T16:41:10;4.68;;;2.42;;
39454;SDS011;25155;41.890;23.446;2023-10-09T16:43:38;5.50;;;2.15;;
39454;SDS011;25155;41.890;23.446;2023-10-09T16:46:07;4.25;;;2.20;;
39454;SDS011;25155;41.890;23.446;2023-10-09T16:48:35;3.50;;;2.10;;
39454;SDS011;25155;41.890;23.446;2023-10-09T16:51:05;6.68;;;2.20;;
39454;SDS011;25155;41.890;23.446;2023-10-09T16:53:34;4.90;;;2.20;;
39454;SDS011;25155;41.890;23.446;2023-10-09T16:56:02;4.65;;;2.08;;
39454;SDS011;25155;41.890;23.446;2023-10-09T16:58:36;5.10;;;2.13;;
39454;SDS011;25155;41.890;23.446;2023-10-09T17:01:03;4.47;;;2.50;;
39454;SDS011;25155;41.890;23.446;2023-10-09T17:03:36;4.55;;;2.20;;
39454;SDS011;25155;41.890;23.446;2023-10-09T17:06:07;4.30;;;2.17;;
39454;SDS011;25155;41.890;23.446;2023-10-09T17:08:36;3.60;;;2.25;;
39454;SDS011;25155;41.890;23.446;2023-10-09T17:11:08;4.97;;;2.20;;
39454;SDS011;25155;41.890;23.446;2023-10-09T17:13:39;3.97;;;2.08;;
39454;SDS011;25155;41.890;23.446;2023-10-09T17:16:12;4.55;;;2.22;;
39454;SDS011;25155;41.890;23.446;2023-10-09T17:18:42;5.30;;;2.50;;
39454;SDS011;25155;41.890;23.446;2023-10-09T17:21:11;4.07;;;2.55;;
39454;SDS011;25155;41.890;23.446;2023-10-09T17:23:39;5.25;;;2.60;;
39454;SDS011;25155;41.890;23.446;2023-10-09T17:26:07;4.45;;;2.40;;
39454;SDS011;25155;41.890;23.446;2023-10-09T17:28:36;4.32;;;2.45;;
39454;SDS011;25155;41.890;23.446;2023-10-09T17:31:04;4.15;;;2.10;;
39454;SDS011;25155;41.890;23.446;2023-10-09T17:33:32;4.97;;;2.58;;
39454;SDS011;25155;41.890;23.446;2023-10-09T17:35:59;4.18;;;2.10;;
39454;SDS011;25155;41.890;23.446;2023-10-09T17:38:27;5.15;;;2.63;;
39454;SDS011;25155;41.890;23.446;2023-10-09T17:40:56;4.60;;;2.47;;
39454;SDS011;25155;41.890;23.446;2023-10-09T17:43:24;3.60;;;2.03;;
39454;SDS011;25155;41.890;23.446;2023-10-09T17:45:52;3.85;;;2.20;;
39454;SDS011;25155;41.890;23.446;2023-10-09T17:48:23;6.28;;;2.53;;
39454;SDS011;25155;41.890;23.446;2023-10-09T17:50:50;6.73;;;2.80;;
39454;SDS011;25155;41.890;23.446;2023-10-09T17:53:18;5.78;;;2.72;;
39454;SDS011;25155;41.890;23.446;2023-10-09T17:55:45;4.30;;;2.35;;
39454;SDS011;25155;41.890;23.446;2023-10-09T17:58:13;4.43;;;2.25;;
39454;SDS011;25155;41.890;23.446;2023-10-09T18:00:41;6.82;;;2.78;;
39454;SDS011;25155;41.890;23.446;2023-10-09T18:03:09;6.15;;;2.60;;
39454;SDS011;25155;41.890;23.446;2023-10-09T18:05:41;4.97;;;2.50;;
39454;SDS011;25155;41.890;23.446;2023-10-09T18:08:10;5.60;;;2.58;;
39454;SDS011;25155;41.890;23.446;2023-10-09T18:10:40;6.25;;;2.90;;
39454;SDS011;25155;41.890;23.446;2023-10-09T18:13:08;4.13;;;2.58;;
39454;SDS011;25155;41.890;23.446;2023-10-09T18:15:42;4.25;;;2.42;;
39454;SDS011;25155;41.890;23.446;2023-10-09T18:18:09;5.47;;;2.78;;
39454;SDS011;25155;41.890;23.446;2023-10-09T18:20:41;4.05;;;2.45;;
39454;SDS011;25155;41.890;23.446;2023-10-09T18:23:09;5.28;;;2.80;;
39454;SDS011;25155;41.890;23.446;2023-10-09T18:25:36;5.35;;;2.83;;
39454;SDS011;25155;41.890;23.446;2023-10-09T18:28:05;6.78;;;2.75;;
39454;SDS011;25155;41.890;23.446;2023-10-09T18:30:35;7.05;;;2.47;;
39454;SDS011;25155;41.890;23.446;2023-10-09T18:33:04;5.47;;;2.90;;
39454;SDS011;25155;41.890;23.446;2023-10-09T18:35:30;4.60;;;2.85;;
39454;SDS011;25155;41.890;23.446;2023-10-09T18:37:59;4.53;;;2.70;;
39454;SDS011;25155;41.890;23.446;2023-10-09T18:40:26;8.07;;;3.38;;
39454;SDS011;25155;41.890;23.446;2023-10-09T18:42:56;5.00;;;2.55;;
39454;SDS011;25155;41.890;23.446;2023-10-09T18:45:23;5.78;;;2.90;;
39454;SDS011;25155;41.890;23.446;2023-10-09T18:47:51;6.28;;;2.80;;
39454;SDS011;25155;41.890;23.446;2023-10-09T18:50:19;6.72;;;3.03;;
39454;SDS011;25155;41.890;23.446;2023-10-09T18:52:46;6.43;;;2.88;;
39454;SDS011;25155;41.890;23.446;2023-10-09T18:55:18;5.70;;;2.78;;
39454;SDS011;25155;41.890;23.446;2023-10-09T18:57:46;8.15;;;3.15;;
39454;SDS011;25155;41.890;23.446;2023-10-09T19:00:13;6.20;;;2.92;;
39454;SDS011;25155;41.890;23.446;2023-10-09T19:02:45;5.35;;;2.75;;
39454;SDS011;25155;41.890;23.446;2023-10-09T19:05:16;6.68;;;3.38;;